createdAt,value
2023-01-28T00:02:19.071Z,7.75
2023-01-28T00:04:47.542Z,7.40
2023-01-28T00:07:16.040Z,7.88
2023-01-28T00:09:44.556Z,7.47
2023-01-28T00:12:13.054Z,7.60
2023-01-28T00:14:41.550Z,8.30
2023-01-28T00:17:10.033Z,7.60
2023-01-28T00:19:39.855Z,7.22
2023-01-28T00:22:08.361Z,7.78
2023-01-28T00:24:36.845Z,7.85
2023-01-28T00:27:05.364Z,6.95
2023-01-28T00:29:33.795Z,7.68
2023-01-28T00:32:02.364Z,7.53
2023-01-28T00:34:31.215Z,8.10
2023-01-28T00:37:01.004Z,7.35
2023-01-28T00:39:29.554Z,7.35
2023-01-28T00:41:58.103Z,8.05
2023-01-28T00:44:27.185Z,7.85
2023-01-28T00:46:56.022Z,7.55
2023-01-28T00:49:24.577Z,7.85
2023-01-28T00:51:53.054Z,7.97
2023-01-28T00:54:22.843Z,8.48
2023-01-28T00:56:53.494Z,7.60
2023-01-28T00:59:22.016Z,7.45
2023-01-28T01:01:50.477Z,8.00
2023-01-28T01:04:26.446Z,7.28
2023-01-28T01:06:55.082Z,7.88
2023-01-28T01:09:25.331Z,7.50
2023-01-28T01:11:53.801Z,7.43
2023-01-28T01:14:22.292Z,7.47
2023-01-28T01:16:50.789Z,7.22
2023-01-28T01:19:20.851Z,7.63
2023-01-28T01:21:50.828Z,7.65
2023-01-28T01:24:19.524Z,7.82
2023-01-28T01:26:49.630Z,7.82
2023-01-28T01:29:18.144Z,6.95
2023-01-28T01:31:46.575Z,7.45
2023-01-28T01:34:15.902Z,6.97
2023-01-28T01:36:44.781Z,7.40
2023-01-28T01:39:13.851Z,6.97
2023-01-28T01:41:42.436Z,6.63
2023-01-28T01:44:55.633Z,7.50
2023-01-28T01:47:30.395Z,7.25
2023-01-28T01:50:01.775Z,6.68
2023-01-28T01:52:34.836Z,7.32
2023-01-28T01:55:08.062Z,7.45
2023-01-28T01:57:37.810Z,6.93
2023-01-28T02:00:09.357Z,7.07
2023-01-28T02:02:52.152Z,6.80
2023-01-28T02:05:23.155Z,6.97
2023-01-28T02:08:15.974Z,7.38
2023-01-28T02:10:47.950Z,7.28
2023-01-28T02:13:18.834Z,7.50
2023-01-28T02:15:47.489Z,7.55
2023-01-28T02:18:17.620Z,7.40
2023-01-28T02:21:11.036Z,7.13
2023-01-28T02:23:52.021Z,6.80
2023-01-28T02:26:43.971Z,6.82
2023-01-28T02:29:20.880Z,6.72
2023-01-28T02:31:55.507Z,6.53
2023-01-28T02:34:32.823Z,6.63
2023-01-28T02:37:07.994Z,7.03
2023-01-28T02:39:41.622Z,6.60
2023-01-28T02:42:14.744Z,6.80
2023-01-28T02:44:44.668Z,6.63
2023-01-28T02:47:31.662Z,6.65
2023-01-28T02:50:03.858Z,7.30
2023-01-28T02:53:04.180Z,6.53
2023-01-28T02:55:40.401Z,6.80
2023-01-28T02:58:15.371Z,6.50
2023-01-28T03:00:51.893Z,6.57
2023-01-28T03:03:25.782Z,6.35
2023-01-28T03:06:06.841Z,6.90
2023-01-28T03:08:57.983Z,6.30
2023-01-28T03:11:46.914Z,6.47
2023-01-28T03:14:34.833Z,6.45
2023-01-28T03:17:26.349Z,5.93
2023-01-28T03:20:13.105Z,6.32
2023-01-28T03:23:02.501Z,6.57
2023-01-28T03:25:49.120Z,5.82
2023-01-28T03:28:39.399Z,6.05
2023-01-28T03:31:29.321Z,6.47
2023-01-28T03:34:20.911Z,6.90
2023-01-28T03:36:51.186Z,6.50
2023-01-28T03:39:43.085Z,5.90
2023-01-28T03:42:14.838Z,6.43
2023-01-28T03:45:05.423Z,6.53
2023-01-28T03:47:35.091Z,6.53
2023-01-28T03:50:08.529Z,6.47
2023-01-28T03:52:46.434Z,6.50
2023-01-28T03:55:26.003Z,6.25
2023-01-28T03:57:54.993Z,6.53
2023-01-28T04:00:23.592Z,6.32
2023-01-28T04:02:52.227Z,6.20
2023-01-28T04:05:23.715Z,6.28
2023-01-28T04:07:55.184Z,5.50
2023-01-28T04:10:43.863Z,6.05
2023-01-28T04:13:20.458Z,6.28
2023-01-28T04:15:49.394Z,5.80
2023-01-28T04:18:19.576Z,5.93
2023-01-28T04:20:52.582Z,6.10
2023-01-28T04:23:21.362Z,5.43
2023-01-28T04:25:52.086Z,5.53
2023-01-28T04:28:21.750Z,6.50
2023-01-28T04:30:50.197Z,5.78
2023-01-28T04:33:47.854Z,5.47
2023-01-28T04:39:45.193Z,5.85
2023-01-28T04:42:36.591Z,6.20
2023-01-28T04:45:11.531Z,5.20
2023-01-28T04:47:55.214Z,5.38
2023-01-28T04:50:32.296Z,5.70
2023-01-28T04:53:31.201Z,5.43
2023-01-28T04:56:01.266Z,5.70
2023-01-28T04:58:33.445Z,5.85
2023-01-28T05:01:06.051Z,5.82
2023-01-28T05:03:36.436Z,5.93
2023-01-28T05:06:06.290Z,6.13
2023-01-28T05:08:42.466Z,5.53
2023-01-28T05:11:11.050Z,5.85
2023-01-28T05:13:39.762Z,5.38
2023-01-28T05:16:12.344Z,5.35
2023-01-28T05:18:42.045Z,5.53
2023-01-28T05:21:17.424Z,5.28
2023-01-28T05:23:49.135Z,5.18
2023-01-28T05:26:17.590Z,5.78
2023-01-28T05:28:46.647Z,5.30
2023-01-28T05:31:15.195Z,4.90
2023-01-28T05:33:44.306Z,5.55
2023-01-28T05:36:14.066Z,5.43
2023-01-28T05:38:43.241Z,5.88
2023-01-28T05:41:13.391Z,5.40
2023-01-28T05:43:43.862Z,5.05
2023-01-28T05:46:38.088Z,5.05
2023-01-28T05:49:17.473Z,5.63
2023-01-28T05:52:11.798Z,5.38
2023-01-28T05:54:40.703Z,5.35
2023-01-28T05:57:10.610Z,5.75
2023-01-28T05:59:39.576Z,5.32
2023-01-28T06:02:08.153Z,5.25
2023-01-28T06:04:37.223Z,5.13
2023-01-28T06:07:05.873Z,5.60
2023-01-28T06:09:34.437Z,4.97
2023-01-28T06:12:02.985Z,5.28
2023-01-28T06:14:38.219Z,5.13
2023-01-28T06:17:32.509Z,5.38
2023-01-28T06:20:10.423Z,5.40
2023-01-28T06:22:40.709Z,4.93
2023-01-28T06:25:09.940Z,5.43
2023-01-28T06:27:38.412Z,4.85
2023-01-28T06:30:09.679Z,5.25
2023-01-28T06:32:38.485Z,5.30
2023-01-28T06:35:08.115Z,4.65
2023-01-28T06:37:37.764Z,5.35
2023-01-28T06:40:07.178Z,5.03
2023-01-28T06:42:36.082Z,4.88
2023-01-28T06:45:04.771Z,4.93
2023-01-28T06:47:34.577Z,5.07
2023-01-28T06:50:03.030Z,4.82
2023-01-28T06:52:31.556Z,5.20
2023-01-28T06:55:00.006Z,4.97
2023-01-28T06:57:28.544Z,4.85
2023-01-28T06:59:57.083Z,5.18
2023-01-28T07:02:27.677Z,4.88
2023-01-28T07:04:57.581Z,5.15
2023-01-28T07:07:26.069Z,5.40
2023-01-28T07:09:54.507Z,4.70
2023-01-28T07:12:22.953Z,4.80
2023-01-28T07:14:51.365Z,4.97
2023-01-28T07:17:19.894Z,5.25
2023-01-28T07:19:48.431Z,4.82
2023-01-28T07:22:18.256Z,4.18
2023-01-28T07:24:46.685Z,4.00
2023-01-28T07:27:15.081Z,3.95
2023-01-28T07:29:43.518Z,4.50
2023-01-28T07:32:12.037Z,4.93
2023-01-28T07:34:43.009Z,4.80
2023-01-28T07:37:11.677Z,4.80
2023-01-28T07:39:41.438Z,5.50
2023-01-28T07:42:10.466Z,5.22
2023-01-28T07:44:40.459Z,5.18
2023-01-28T07:47:09.061Z,4.47
2023-01-28T07:49:39.675Z,5.00
2023-01-28T07:52:08.194Z,4.53
2023-01-28T07:54:36.651Z,4.82
2023-01-28T07:57:10.780Z,5.57
2023-01-28T07:59:39.233Z,4.80
2023-01-28T08:02:07.639Z,4.70
2023-01-28T08:04:36.185Z,5.15
2023-01-28T08:07:07.182Z,5.05
2023-01-28T08:09:36.501Z,4.85
2023-01-28T08:12:05.581Z,4.50
2023-01-28T08:14:35.400Z,4.63
2023-01-28T08:17:03.818Z,4.80
2023-01-28T08:19:32.204Z,4.32
2023-01-28T08:22:00.734Z,4.35
2023-01-28T08:24:29.254Z,5.07
2023-01-28T08:26:57.716Z,4.50
2023-01-28T08:29:26.265Z,4.90
2023-01-28T08:31:56.038Z,4.47
2023-01-28T08:34:24.576Z,5.03
2023-01-28T08:36:53.268Z,4.60
2023-01-28T08:39:21.801Z,4.20
2023-01-28T08:41:50.268Z,4.55
2023-01-28T08:44:18.717Z,4.65
2023-01-28T08:46:47.257Z,4.88
2023-01-28T08:49:17.081Z,3.72
2023-01-28T08:51:45.591Z,4.18
2023-01-28T08:54:14.041Z,4.82
2023-01-28T08:56:44.750Z,4.43
2023-01-28T08:59:13.229Z,4.63
2023-01-28T09:01:42.198Z,4.60
2023-01-28T09:04:10.720Z,4.43
2023-01-28T09:06:40.544Z,4.38
2023-01-28T09:09:09.035Z,4.75
2023-01-28T09:11:37.440Z,4.32
2023-01-28T09:14:05.881Z,4.30
2023-01-28T09:16:34.480Z,3.97
2023-01-28T09:19:02.915Z,4.13
2023-01-28T09:21:31.393Z,4.22
2023-01-28T09:24:01.206Z,4.32
2023-01-28T09:26:29.710Z,3.90
2023-01-28T09:28:58.150Z,3.80
2023-01-28T09:31:26.713Z,4.40
2023-01-28T09:33:57.156Z,4.03
2023-01-28T09:36:25.643Z,4.18
2023-01-28T09:38:54.161Z,4.38
2023-01-28T09:41:30.089Z,4.07
2023-01-28T09:44:06.413Z,4.03
2023-01-28T09:46:37.397Z,4.03
2023-01-28T09:49:18.629Z,4.50
2023-01-28T09:51:53.046Z,3.97
2023-01-28T09:54:28.212Z,3.95
2023-01-28T09:57:05.385Z,4.15
2023-01-28T09:59:36.206Z,4.50
2023-01-28T10:02:26.024Z,4.10
2023-01-28T10:05:06.981Z,4.32
2023-01-28T10:07:42.927Z,3.90
2023-01-28T10:10:17.266Z,4.45
2023-01-28T10:13:08.551Z,4.40
2023-01-28T10:16:05.015Z,4.53
2023-01-28T10:18:38.621Z,4.15
2023-01-28T10:21:14.383Z,4.65
2023-01-28T10:23:51.764Z,4.65
2023-01-28T10:26:25.433Z,4.85
2023-01-28T10:28:59.251Z,4.68
2023-01-28T10:31:33.324Z,4.70
2023-01-28T10:36:31.111Z,4.78
2023-01-28T10:38:59.884Z,4.10
2023-01-28T10:41:28.312Z,3.80
2023-01-28T10:43:58.264Z,4.80
2023-01-28T10:46:31.589Z,4.13
2023-01-28T10:49:08.107Z,4.15
2023-01-28T10:51:38.442Z,4.57
2023-01-28T10:54:21.010Z,4.43
2023-01-28T10:56:51.444Z,5.57
2023-01-28T10:59:24.010Z,4.82
2023-01-28T11:01:54.901Z,4.53
2023-01-28T11:04:26.565Z,4.55
2023-01-28T11:07:00.355Z,4.60
2023-01-28T11:09:31.838Z,4.50
2023-01-28T11:12:11.653Z,4.50
2023-01-28T11:14:51.712Z,4.20
2023-01-28T11:19:49.912Z,4.22
2023-01-28T11:22:25.396Z,4.75
2023-01-28T11:24:54.412Z,4.10
2023-01-28T11:27:29.785Z,4.72
2023-01-28T11:30:03.477Z,4.25
2023-01-28T11:32:32.618Z,4.20
2023-01-28T11:35:07.654Z,4.18
2023-01-28T11:37:37.858Z,4.30
2023-01-28T11:40:21.397Z,4.65
2023-01-28T11:42:52.334Z,4.18
2023-01-28T11:45:33.079Z,3.90
2023-01-28T11:48:12.897Z,4.30
2023-01-28T11:50:49.345Z,3.85
2023-01-28T11:53:51.801Z,4.13
2023-01-28T11:56:42.161Z,3.83
2023-01-28T11:59:27.420Z,4.00
2023-01-28T12:02:03.823Z,4.05
2023-01-28T12:04:52.762Z,3.78
2023-01-28T12:07:35.206Z,4.13
2023-01-28T12:10:09.572Z,3.83
2023-01-28T12:12:53.229Z,4.07
2023-01-28T12:15:49.798Z,3.80
2023-01-28T12:18:31.715Z,3.83
2023-01-28T12:21:08.425Z,3.60
2023-01-28T12:23:51.959Z,3.60
2023-01-28T12:26:30.016Z,3.78
2023-01-28T12:29:13.526Z,3.67
2023-01-28T12:32:07.017Z,3.50
2023-01-28T12:34:58.193Z,3.83
2023-01-28T12:37:36.557Z,3.63
2023-01-28T12:40:19.837Z,3.78
2023-01-28T12:42:52.849Z,3.47
2023-01-28T12:45:27.430Z,3.67
2023-01-28T12:48:02.016Z,3.33
2023-01-28T12:50:37.506Z,3.30
2023-01-28T12:53:21.250Z,3.30
2023-01-28T12:55:55.546Z,3.42
2023-01-28T13:00:59.524Z,3.15
2023-01-28T13:03:34.820Z,3.33
2023-01-28T13:06:09.878Z,3.60
2023-01-28T13:08:38.688Z,3.60
2023-01-28T13:11:14.705Z,3.30
2023-01-28T13:13:46.081Z,3.30
2023-01-28T13:16:15.071Z,3.00
2023-01-28T13:18:46.246Z,3.25
2023-01-28T13:21:32.406Z,3.63
2023-01-28T13:24:19.864Z,3.13
2023-01-28T13:26:54.121Z,3.10
2023-01-28T13:29:32.804Z,3.70
2023-01-28T13:32:03.047Z,3.30
2023-01-28T13:34:37.385Z,3.40
2023-01-28T13:39:48.735Z,3.25
2023-01-28T13:42:26.551Z,3.40
2023-01-28T13:44:55.654Z,3.55
2023-01-28T13:47:30.795Z,3.22
2023-01-28T13:50:03.652Z,3.10
2023-01-28T13:52:37.651Z,3.30
2023-01-28T13:55:25.961Z,3.53
2023-01-28T13:58:34.177Z,2.97
2023-01-28T14:01:23.734Z,3.30
2023-01-28T14:04:38.331Z,3.08
2023-01-28T14:07:45.672Z,3.30
2023-01-28T14:10:34.700Z,3.40
2023-01-28T14:13:18.097Z,3.40
2023-01-28T14:15:58.118Z,2.78
2023-01-28T14:18:29.133Z,3.17
2023-01-28T14:21:02.450Z,3.03
2023-01-28T14:23:32.609Z,3.03
2023-01-28T14:26:17.769Z,3.22
2023-01-28T14:28:53.697Z,3.00
2023-01-28T14:31:28.201Z,2.90
2023-01-28T14:34:01.342Z,3.10
2023-01-28T14:36:29.809Z,2.78
2023-01-28T14:38:59.784Z,2.78
2023-01-28T14:41:29.523Z,2.88
2023-01-28T14:43:58.766Z,3.33
2023-01-28T14:46:37.528Z,2.90
2023-01-28T14:49:21.145Z,2.85
2023-01-28T14:52:10.654Z,3.40
2023-01-28T14:54:51.443Z,2.92
2023-01-28T14:57:34.850Z,3.00
2023-01-28T15:00:08.061Z,3.00
2023-01-28T15:02:36.456Z,2.67
2023-01-28T15:05:14.834Z,3.00
2023-01-28T15:07:46.093Z,2.80
2023-01-28T15:10:22.330Z,2.80
2023-01-28T15:12:55.430Z,2.97
2023-01-28T15:15:31.663Z,2.67
2023-01-28T15:18:04.389Z,2.72
2023-01-28T15:20:33.353Z,2.60
2023-01-28T15:23:03.733Z,2.72
2023-01-28T15:25:33.779Z,2.63
2023-01-28T15:28:03.028Z,3.17
2023-01-28T15:30:33.248Z,3.05
2023-01-28T15:33:05.127Z,3.35
2023-01-28T15:35:34.454Z,3.15
2023-01-28T15:38:04.109Z,3.13
2023-01-28T15:40:43.649Z,3.00
2023-01-28T15:43:25.518Z,3.00
2023-01-28T15:45:56.397Z,3.05
2023-01-28T15:48:26.849Z,3.03
2023-01-28T15:51:03.441Z,3.35
2023-01-28T15:53:35.909Z,3.17
2023-01-28T15:56:11.594Z,2.90
2023-01-28T15:58:42.289Z,2.70
2023-01-28T16:01:16.555Z,2.72
2023-01-28T16:03:47.326Z,3.10
2023-01-28T16:06:19.839Z,2.75
2023-01-28T16:08:54.185Z,3.13
2023-01-28T16:11:27.481Z,2.60
2023-01-28T16:13:56.806Z,3.03
2023-01-28T16:16:29.476Z,3.17
2023-01-28T16:18:58.486Z,2.95
2023-01-28T16:21:29.474Z,2.90
2023-01-28T16:24:02.936Z,2.63
2023-01-28T16:26:34.303Z,2.90
2023-01-28T16:29:14.297Z,3.10
2023-01-28T16:31:43.840Z,2.67
2023-01-28T16:34:12.652Z,2.55
2023-01-28T16:36:41.356Z,2.75
2023-01-28T16:39:10.734Z,3.15
2023-01-28T16:41:43.356Z,2.70
2023-01-28T16:44:14.580Z,2.83
2023-01-28T16:46:43.375Z,2.75
2023-01-28T16:49:12.280Z,2.50
2023-01-28T16:51:43.736Z,2.92
2023-01-28T16:54:15.512Z,2.40
2023-01-28T16:56:46.727Z,2.67
2023-01-28T16:59:16.865Z,2.80
2023-01-28T17:01:46.433Z,2.70
2023-01-28T17:04:15.412Z,2.92
2023-01-28T17:06:45.196Z,2.83
2023-01-28T17:09:14.981Z,2.50
2023-01-28T17:11:44.777Z,2.35
2023-01-28T17:14:13.366Z,2.47
2023-01-28T17:16:41.942Z,2.65
2023-01-28T17:19:10.623Z,2.65
2023-01-28T17:21:39.284Z,2.38
2023-01-28T17:24:08.547Z,2.63
2023-01-28T17:26:38.185Z,2.30
2023-01-28T17:29:09.127Z,2.30
2023-01-28T17:31:38.455Z,2.35
2023-01-28T17:34:08.160Z,2.17
2023-01-28T17:36:37.056Z,1.98
2023-01-28T17:39:07.426Z,1.85
2023-01-28T17:41:36.164Z,2.20
2023-01-28T17:44:05.035Z,2.15
2023-01-28T17:46:34.928Z,2.10
2023-01-28T17:49:03.567Z,1.80
2023-01-28T17:51:32.238Z,2.30
2023-01-28T17:54:00.842Z,2.00
2023-01-28T17:56:31.123Z,2.10
2023-01-28T17:59:02.688Z,1.85
2023-01-28T18:01:32.117Z,1.98
2023-01-28T18:04:02.461Z,2.13
2023-01-28T18:06:32.400Z,2.10
2023-01-28T18:09:01.422Z,2.00
2023-01-28T18:11:30.380Z,1.77
2023-01-28T18:13:59.020Z,1.80
2023-01-28T18:16:27.491Z,1.90
2023-01-28T18:18:56.344Z,1.85
2023-01-28T18:21:46.388Z,1.90
2023-01-28T18:24:19.121Z,1.90
2023-01-28T18:26:47.909Z,2.05
2023-01-28T18:29:20.265Z,1.63
2023-01-28T18:31:49.554Z,2.10
2023-01-28T18:34:18.773Z,1.77
2023-01-28T18:36:49.657Z,1.70
2023-01-28T18:39:22.078Z,1.95
2023-01-28T18:41:53.895Z,1.75
2023-01-28T18:44:23.869Z,1.80
2023-01-28T18:46:52.875Z,1.52
2023-01-28T18:49:21.664Z,1.60
2023-01-28T18:51:51.832Z,1.70
2023-01-28T18:54:20.912Z,1.80
2023-01-28T18:56:49.962Z,1.73
2023-01-28T18:59:18.476Z,1.70
2023-01-28T19:01:47.813Z,1.83
2023-01-28T19:04:18.662Z,1.63
2023-01-28T19:06:48.010Z,1.80
2023-01-28T19:09:18.800Z,1.73
2023-01-28T19:11:50.780Z,1.80
2023-01-28T19:14:19.250Z,1.65
2023-01-28T19:16:47.860Z,2.20
2023-01-28T19:19:16.337Z,1.80
2023-01-28T19:21:44.777Z,2.00
2023-01-28T19:24:14.811Z,2.13
2023-01-28T19:26:45.705Z,1.80
2023-01-28T19:29:16.132Z,2.00
2023-01-28T19:31:48.662Z,2.10
2023-01-28T19:34:17.688Z,2.13
2023-01-28T19:36:46.798Z,2.08
2023-01-28T19:39:16.034Z,2.10
2023-01-28T19:41:45.997Z,2.20
2023-01-28T19:44:14.552Z,2.20
2023-01-28T19:46:43.058Z,2.33
2023-01-28T19:49:12.579Z,2.10
2023-01-28T19:51:41.196Z,2.20
2023-01-28T19:54:09.640Z,2.33
2023-01-28T19:56:38.584Z,2.17
2023-01-28T19:59:08.391Z,2.05
2023-01-28T20:01:37.053Z,2.38
2023-01-28T20:04:05.869Z,2.20
2023-01-28T20:06:36.349Z,2.20
2023-01-28T20:09:07.774Z,2.20
2023-01-28T20:11:36.233Z,2.28
2023-01-28T20:14:04.765Z,2.58
2023-01-28T20:16:36.191Z,2.65
2023-01-28T20:19:06.987Z,2.70
2023-01-28T20:21:36.307Z,3.83
2023-01-28T20:24:06.497Z,4.15
2023-01-28T20:26:37.282Z,4.72
2023-01-28T20:29:08.229Z,5.15
2023-01-28T20:31:39.298Z,5.60
2023-01-28T20:34:08.601Z,5.10
2023-01-28T20:36:37.116Z,5.82
2023-01-28T20:39:05.689Z,6.00
2023-01-28T20:41:34.422Z,6.03
2023-01-28T20:44:02.999Z,6.30
2023-01-28T20:46:33.663Z,5.70
2023-01-28T20:49:06.472Z,6.25
2023-01-28T20:51:36.456Z,6.30
2023-01-28T20:54:05.271Z,6.53
2023-01-28T20:56:33.880Z,6.28
2023-01-28T20:59:04.091Z,6.25
2023-01-28T21:01:34.907Z,6.75
2023-01-28T21:04:05.853Z,7.25
2023-01-28T21:06:34.895Z,6.63
2023-01-28T21:09:03.592Z,7.25
2023-01-28T21:11:32.380Z,6.82
2023-01-28T21:14:01.015Z,6.85
2023-01-28T21:16:29.864Z,7.18
2023-01-28T21:18:58.357Z,6.97
2023-01-28T21:21:29.946Z,6.95
2023-01-28T21:24:00.214Z,6.72
2023-01-28T21:26:29.292Z,7.53
2023-01-28T21:28:57.831Z,7.53
2023-01-28T21:31:27.710Z,7.25
2023-01-28T21:34:01.129Z,7.97
2023-01-28T21:36:33.800Z,8.05
2023-01-28T21:39:03.472Z,7.72
2023-01-28T21:41:32.697Z,8.35
2023-01-28T21:44:01.165Z,8.32
2023-01-28T21:46:31.479Z,8.35
2023-01-28T21:49:01.777Z,8.70
2023-01-28T21:51:39.196Z,8.40
2023-01-28T21:54:10.795Z,8.18
2023-01-28T21:56:39.208Z,8.32
2023-01-28T21:59:25.344Z,9.05
2023-01-28T22:01:53.864Z,8.85
2023-01-28T22:04:23.481Z,8.85
2023-01-28T22:06:55.596Z,8.52
2023-01-28T22:09:24.360Z,8.00
2023-01-28T22:11:53.007Z,8.82
2023-01-28T22:14:21.581Z,8.75
2023-01-28T22:16:50.354Z,8.82
2023-01-28T22:19:19.520Z,8.20
2023-01-28T22:21:48.910Z,8.32
2023-01-28T22:24:20.522Z,8.82
2023-01-28T22:26:49.872Z,8.40
2023-01-28T22:29:20.099Z,8.23
2023-01-28T22:31:49.532Z,8.57
2023-01-28T22:34:18.897Z,8.27
2023-01-28T22:36:48.396Z,8.00
2023-01-28T22:39:18.712Z,8.50
2023-01-28T22:41:48.226Z,9.13
2023-01-28T22:44:16.875Z,8.70
2023-01-28T22:46:45.334Z,8.48
2023-01-28T22:49:14.875Z,8.30
2023-01-28T22:51:43.667Z,8.00
2023-01-28T22:54:14.667Z,7.70
2023-01-28T22:56:44.628Z,8.43
2023-01-28T22:59:13.489Z,8.73
2023-01-28T23:01:42.397Z,8.27
2023-01-28T23:04:11.079Z,8.18
2023-01-28T23:06:39.668Z,7.30
2023-01-28T23:09:08.113Z,8.60
2023-01-28T23:11:36.785Z,8.18
2023-01-28T23:14:23.885Z,8.23
2023-01-28T23:17:10.101Z,7.50
2023-01-28T23:19:56.080Z,8.05
2023-01-28T23:22:46.411Z,7.90
2023-01-28T23:25:15.442Z,8.30
2023-01-28T23:27:44.692Z,7.18
2023-01-28T23:30:15.700Z,8.02
2023-01-28T23:32:48.041Z,7.53
2023-01-28T23:35:18.794Z,7.55
2023-01-28T23:37:47.524Z,8.50
2023-01-28T23:40:17.037Z,7.40
2023-01-28T23:42:49.565Z,7.95
2023-01-28T23:45:19.539Z,8.18
2023-01-28T23:47:48.536Z,8.10
2023-01-28T23:50:18.019Z,8.45
2023-01-28T23:52:46.657Z,7.50
2023-01-28T23:55:15.812Z,7.40
2023-01-28T23:57:44.279Z,7.20
